createdAt,value
2019-05-15T00:00:22.895Z,0.00
2019-05-15T00:01:22.881Z,0.00
2019-05-15T00:02:22.881Z,0.00
2019-05-15T00:03:22.884Z,0.00
2019-05-15T00:04:22.855Z,0.00
2019-05-15T00:05:22.850Z,0.00
2019-05-15T00:06:22.831Z,0.00
2019-05-15T00:07:22.823Z,0.00
2019-05-15T00:08:22.823Z,0.00
2019-05-15T00:09:22.803Z,0.00
2019-05-15T00:10:22.793Z,0.00
2019-05-15T00:11:22.791Z,0.00
2019-05-15T00:12:22.772Z,0.00
2019-05-15T00:13:22.768Z,0.00
2019-05-15T00:14:22.751Z,0.00
2019-05-15T00:15:22.732Z,0.00
2019-05-15T00:16:22.723Z,0.00
2019-05-15T00:17:22.716Z,0.00
2019-05-15T00:18:22.719Z,0.00
2019-05-15T00:19:22.696Z,0.00
2019-05-15T00:20:22.692Z,0.00
2019-05-15T00:21:22.671Z,0.00
2019-05-15T00:22:22.665Z,0.00
2019-05-15T00:23:22.668Z,0.00
2019-05-15T00:24:22.649Z,0.00
2019-05-15T00:25:22.842Z,0.00
2019-05-15T00:26:22.623Z,0.00
2019-05-15T00:27:22.611Z,0.00
2019-05-15T00:28:22.615Z,0.00
2019-05-15T00:29:22.591Z,0.00
2019-05-15T00:30:22.582Z,0.00
2019-05-15T00:31:22.568Z,0.00
2019-05-15T00:32:22.557Z,0.00
2019-05-15T00:33:22.563Z,0.00
2019-05-15T00:34:22.535Z,0.00
2019-05-15T00:35:22.521Z,0.00
2019-05-15T00:36:22.511Z,0.00
2019-05-15T00:37:22.509Z,0.00
2019-05-15T00:38:22.504Z,0.00
2019-05-15T00:39:22.479Z,0.00
2019-05-15T00:40:22.473Z,0.00
2019-05-15T00:41:22.461Z,0.00
2019-05-15T00:42:22.447Z,0.00
2019-05-15T00:43:22.457Z,0.00
2019-05-15T00:44:22.429Z,0.00
2019-05-15T00:45:22.421Z,0.00
2019-05-15T00:46:22.407Z,0.00
2019-05-15T00:47:22.393Z,0.00
2019-05-15T00:48:22.399Z,0.00
2019-05-15T00:49:22.374Z,0.00
2019-05-15T00:50:22.362Z,0.00
2019-05-15T00:51:22.352Z,0.00
2019-05-15T00:52:22.337Z,0.00
2019-05-15T00:53:22.342Z,0.00
2019-05-15T00:54:22.322Z,0.00
2019-05-15T00:55:22.311Z,0.00
2019-05-15T00:56:22.295Z,0.00
2019-05-15T00:57:22.301Z,0.00
2019-05-15T00:58:22.290Z,0.00
2019-05-15T00:59:26.666Z,0.00
2019-05-15T01:00:23.257Z,0.00
2019-05-15T01:01:22.247Z,0.00
2019-05-15T01:02:22.236Z,0.00
2019-05-15T01:03:22.237Z,0.00
2019-05-15T01:04:22.213Z,0.00
2019-05-15T01:05:22.203Z,0.00
2019-05-15T01:06:22.193Z,0.00
2019-05-15T01:07:22.187Z,0.00
2019-05-15T01:08:22.190Z,0.00
2019-05-15T01:09:22.173Z,0.00
2019-05-15T01:10:22.146Z,0.00
2019-05-15T01:11:22.141Z,0.00
2019-05-15T01:12:22.126Z,0.00
2019-05-15T01:13:22.149Z,0.00
2019-05-15T01:14:22.107Z,0.00
2019-05-15T01:15:22.101Z,0.00
2019-05-15T01:16:22.089Z,0.00
2019-05-15T01:17:22.085Z,0.00
2019-05-15T01:18:22.078Z,0.00
2019-05-15T01:19:22.056Z,0.00
2019-05-15T01:20:22.048Z,0.00
2019-05-15T01:21:22.036Z,0.00
2019-05-15T01:22:22.022Z,0.00
2019-05-15T01:23:22.041Z,0.00
2019-05-15T01:24:22.008Z,0.00
2019-05-15T01:25:21.992Z,0.00
2019-05-15T01:26:21.988Z,0.00
2019-05-15T01:27:21.970Z,0.00
2019-05-15T01:28:21.961Z,0.00
2019-05-15T01:29:21.962Z,0.00
2019-05-15T01:30:21.939Z,0.00
2019-05-15T01:31:21.929Z,0.00
2019-05-15T01:32:21.918Z,0.00
2019-05-15T01:33:21.905Z,0.00
2019-05-15T01:34:21.908Z,0.00
2019-05-15T01:35:21.885Z,0.00
2019-05-15T01:36:21.876Z,0.00
2019-05-15T01:37:21.868Z,0.00
2019-05-15T01:38:21.857Z,0.00
2019-05-15T01:39:21.861Z,0.00
2019-05-15T01:40:21.835Z,0.00
2019-05-15T01:41:21.823Z,0.00
2019-05-15T01:42:21.817Z,0.00
2019-05-15T01:43:21.797Z,0.00
2019-05-15T01:44:21.820Z,0.00
2019-05-15T01:45:21.777Z,0.00
2019-05-15T01:46:21.771Z,0.00
2019-05-15T01:47:21.753Z,0.00
2019-05-15T01:48:21.739Z,0.00
2019-05-15T01:49:21.754Z,0.00
2019-05-15T01:50:21.720Z,0.00
2019-05-15T01:51:21.715Z,0.00
2019-05-15T01:52:21.700Z,0.00
2019-05-15T01:53:21.687Z,0.00
2019-05-15T01:54:21.695Z,0.00
2019-05-15T01:55:21.665Z,0.00
2019-05-15T01:56:21.653Z,0.00
2019-05-15T01:57:21.644Z,0.00
2019-05-15T01:58:21.637Z,0.00
2019-05-15T01:59:21.639Z,0.00
2019-05-15T02:00:21.618Z,0.00
2019-05-15T02:01:21.606Z,0.00
2019-05-15T02:02:21.605Z,0.00
2019-05-15T02:03:21.583Z,0.00
2019-05-15T02:04:21.588Z,0.00
2019-05-15T02:05:21.561Z,0.00
2019-05-15T02:06:21.554Z,0.00
2019-05-15T02:07:21.539Z,0.00
2019-05-15T02:08:21.527Z,0.00
2019-05-15T02:09:21.534Z,0.00
2019-05-15T02:10:21.503Z,0.00
2019-05-15T02:11:21.495Z,0.00
2019-05-15T02:12:21.483Z,0.00
2019-05-15T02:13:21.475Z,0.00
2019-05-15T02:14:21.492Z,0.00
2019-05-15T02:15:21.453Z,0.00
2019-05-15T02:16:21.446Z,0.00
2019-05-15T02:17:21.436Z,0.00
2019-05-15T02:18:21.447Z,0.00
2019-05-15T02:19:21.408Z,0.00
2019-05-15T02:20:21.465Z,0.00
2019-05-15T02:21:21.384Z,0.00
2019-05-15T02:22:21.379Z,0.00
2019-05-15T02:23:21.366Z,0.00
2019-05-15T02:24:21.353Z,0.00
2019-05-15T02:25:21.358Z,0.00
2019-05-15T02:26:21.332Z,0.00
2019-05-15T02:27:21.317Z,0.00
2019-05-15T02:28:21.306Z,0.00
2019-05-15T02:29:25.204Z,0.00
2019-05-15T02:30:28.330Z,0.00
2019-05-15T02:31:22.277Z,0.00
2019-05-15T02:32:21.264Z,0.00
2019-05-15T02:33:21.258Z,0.00
2019-05-15T02:34:21.242Z,0.00
2019-05-15T02:35:21.255Z,0.00
2019-05-15T02:36:21.221Z,0.00
2019-05-15T02:37:21.215Z,0.00
2019-05-15T02:38:21.197Z,0.00
2019-05-15T02:39:21.188Z,0.00
2019-05-15T02:40:21.191Z,0.00
2019-05-15T02:41:21.175Z,0.00
2019-05-15T02:42:21.156Z,0.00
2019-05-15T02:43:21.143Z,0.00
2019-05-15T02:44:21.135Z,0.00
2019-05-15T02:45:21.138Z,0.00
2019-05-15T02:46:21.117Z,0.00
2019-05-15T02:47:21.097Z,0.00
2019-05-15T02:48:21.095Z,0.00
2019-05-15T02:49:21.077Z,0.00
2019-05-15T02:50:21.082Z,0.00
2019-05-15T02:51:21.059Z,0.00
2019-05-15T02:52:21.048Z,0.00
2019-05-15T02:53:21.037Z,0.00
2019-05-15T02:54:21.024Z,0.00
2019-05-15T02:55:21.028Z,0.00
2019-05-15T02:56:21.002Z,0.00
2019-05-15T02:57:20.999Z,0.00
2019-05-15T02:58:21.880Z,0.00
2019-05-15T02:59:20.969Z,0.00
2019-05-15T03:00:36.574Z,0.00
2019-05-15T03:01:21.948Z,0.00
2019-05-15T03:02:20.949Z,0.00
2019-05-15T03:03:20.963Z,0.00
2019-05-15T03:04:20.911Z,0.00
2019-05-15T03:05:20.903Z,0.00
2019-05-15T03:06:20.906Z,0.00
2019-05-15T03:07:20.881Z,0.00
2019-05-15T03:08:20.881Z,0.00
2019-05-15T03:09:20.862Z,0.00
2019-05-15T03:10:20.854Z,0.00
2019-05-15T03:11:20.864Z,0.00
2019-05-15T03:12:20.830Z,0.00
2019-05-15T03:13:20.816Z,0.00
2019-05-15T03:14:21.668Z,0.00
2019-05-15T03:15:20.795Z,0.00
2019-05-15T03:16:20.807Z,0.00
2019-05-15T03:17:20.788Z,0.00
2019-05-15T03:18:20.769Z,0.00
2019-05-15T03:19:20.751Z,0.00
2019-05-15T03:20:20.748Z,0.00
2019-05-15T03:21:20.746Z,0.00
2019-05-15T03:22:20.727Z,0.00
2019-05-15T03:23:20.711Z,0.00
2019-05-15T03:24:20.717Z,0.00
2019-05-15T03:25:20.694Z,0.00
2019-05-15T03:26:20.696Z,0.00
2019-05-15T03:27:20.666Z,0.00
2019-05-15T03:28:20.662Z,0.00
2019-05-15T03:29:21.339Z,0.00
2019-05-15T03:30:22.138Z,0.00
2019-05-15T03:31:41.448Z,0.00
2019-05-15T03:32:32.385Z,0.00
2019-05-15T03:33:28.227Z,0.00
2019-05-15T03:34:29.194Z,0.00
2019-05-15T03:35:22.995Z,0.00
2019-05-15T03:36:23.247Z,0.00
2019-05-15T03:37:22.240Z,0.00
2019-05-15T03:38:20.551Z,0.00
2019-05-15T03:39:20.556Z,0.00
2019-05-15T03:40:20.536Z,0.00
2019-05-15T03:41:20.524Z,0.00
2019-05-15T03:42:20.524Z,0.00
2019-05-15T03:43:20.504Z,0.00
2019-05-15T03:44:20.487Z,0.00
2019-05-15T03:45:20.490Z,0.00
2019-05-15T03:46:20.499Z,0.00
2019-05-15T03:47:20.473Z,0.00
2019-05-15T03:48:20.441Z,0.00
2019-05-15T03:49:20.431Z,0.00
2019-05-15T03:50:20.420Z,0.00
2019-05-15T03:51:20.416Z,0.00
2019-05-15T03:52:20.428Z,0.00
2019-05-15T03:53:20.389Z,0.00
2019-05-15T03:54:20.379Z,0.00
2019-05-15T03:55:20.367Z,0.00
2019-05-15T03:56:20.359Z,0.00
2019-05-15T03:57:23.111Z,0.00
2019-05-15T03:58:21.677Z,0.00
2019-05-15T03:59:20.327Z,0.00
2019-05-15T04:00:20.312Z,104.00
2019-05-15T04:01:29.771Z,116.00
2019-05-15T04:02:21.327Z,120.00
2019-05-15T04:03:20.528Z,124.00
2019-05-15T04:04:20.268Z,120.00
2019-05-15T04:05:20.292Z,124.00
2019-05-15T04:06:20.260Z,124.00
2019-05-15T04:07:20.257Z,124.00
2019-05-15T04:08:20.239Z,124.00
2019-05-15T04:09:20.216Z,128.00
2019-05-15T04:10:20.249Z,128.00
2019-05-15T04:11:20.514Z,128.00
2019-05-15T04:12:20.200Z,128.00
2019-05-15T04:13:20.173Z,132.00
2019-05-15T04:14:20.161Z,136.00
2019-05-15T04:15:20.149Z,136.00
2019-05-15T04:16:20.159Z,136.00
2019-05-15T04:17:20.177Z,144.00
2019-05-15T04:18:20.250Z,148.00
2019-05-15T04:19:20.116Z,160.00
2019-05-15T04:20:20.324Z,164.00
2019-05-15T04:21:20.342Z,184.00
2019-05-15T04:22:20.149Z,200.00
2019-05-15T04:23:20.090Z,216.00
2019-05-15T04:24:20.055Z,224.00
2019-05-15T04:25:20.043Z,232.00
2019-05-15T04:26:20.049Z,236.00
2019-05-15T04:27:20.016Z,240.00
2019-05-15T04:28:20.023Z,240.00
2019-05-15T04:29:19.995Z,244.00
2019-05-15T04:30:19.990Z,240.00
2019-05-15T04:31:19.979Z,240.00
2019-05-15T04:32:20.315Z,240.00
2019-05-15T04:33:20.196Z,228.00
2019-05-15T04:34:19.949Z,220.00
2019-05-15T04:35:20.063Z,220.00
2019-05-15T04:36:19.921Z,220.00
2019-05-15T04:37:19.914Z,224.00
2019-05-15T04:38:19.929Z,228.00
2019-05-15T04:39:19.888Z,240.00
2019-05-15T04:40:19.876Z,260.00
2019-05-15T04:41:20.232Z,272.00
2019-05-15T04:42:20.449Z,284.00
2019-05-15T04:43:19.856Z,288.00
2019-05-15T04:44:19.829Z,288.00
2019-05-15T04:45:19.851Z,292.00
2019-05-15T04:46:20.082Z,292.00
2019-05-15T04:47:19.802Z,292.00
2019-05-15T04:48:20.225Z,288.00
2019-05-15T04:49:19.784Z,284.00
2019-05-15T04:50:19.782Z,272.00
2019-05-15T04:51:19.761Z,260.00
2019-05-15T04:52:19.759Z,244.00
2019-05-15T04:53:19.752Z,228.00
2019-05-15T04:54:20.233Z,212.00
2019-05-15T04:55:20.005Z,212.00
2019-05-15T04:56:19.732Z,204.00
2019-05-15T04:57:19.696Z,204.00
2019-05-15T04:58:21.104Z,208.00
2019-05-15T04:59:19.997Z,208.00
2019-05-15T05:00:19.938Z,208.00
2019-05-15T05:01:20.221Z,208.00
2019-05-15T05:02:26.514Z,208.00
2019-05-15T05:03:20.974Z,208.00
2019-05-15T05:04:19.621Z,208.00
2019-05-15T05:05:19.614Z,216.00
2019-05-15T05:06:19.622Z,216.00
2019-05-15T05:07:19.591Z,224.00
2019-05-15T05:08:20.568Z,220.00
2019-05-15T05:09:19.974Z,228.00
2019-05-15T05:10:19.801Z,232.00
2019-05-15T05:11:23.575Z,236.00
2019-05-15T05:12:19.586Z,248.00
2019-05-15T05:13:20.300Z,260.00
2019-05-15T05:14:19.517Z,264.00
2019-05-15T05:15:19.518Z,272.00
2019-05-15T05:16:19.497Z,276.00
2019-05-15T05:17:19.745Z,276.00
2019-05-15T05:18:19.699Z,280.00
2019-05-15T05:19:19.747Z,288.00
2019-05-15T05:20:19.448Z,288.00
2019-05-15T05:21:19.442Z,288.00
2019-05-15T05:22:19.437Z,280.00
2019-05-15T05:23:19.663Z,284.00
2019-05-15T05:24:19.411Z,284.00
2019-05-15T05:25:19.398Z,288.00
2019-05-15T05:26:19.386Z,300.00
2019-05-15T05:27:19.379Z,312.00
2019-05-15T05:28:19.385Z,332.00
2019-05-15T05:29:19.357Z,348.00
2019-05-15T05:30:19.348Z,360.00
2019-05-15T05:31:19.354Z,372.00
2019-05-15T05:32:30.942Z,384.00
2019-05-15T05:33:20.328Z,388.00
2019-05-15T05:34:19.540Z,392.00
2019-05-15T05:35:19.295Z,388.00
2019-05-15T05:36:19.277Z,380.00
2019-05-15T05:37:19.267Z,376.00
2019-05-15T05:38:19.669Z,372.00
2019-05-15T05:39:20.083Z,376.00
2019-05-15T05:40:19.238Z,364.00
2019-05-15T05:41:19.229Z,360.00
2019-05-15T05:42:19.211Z,352.00
2019-05-15T05:43:19.241Z,340.00
2019-05-15T05:44:19.195Z,328.00
2019-05-15T05:45:19.184Z,324.00
2019-05-15T05:46:19.174Z,316.00
2019-05-15T05:47:19.160Z,320.00
2019-05-15T05:48:19.454Z,324.00
2019-05-15T05:49:19.144Z,336.00
2019-05-15T05:50:19.125Z,344.00
2019-05-15T05:51:19.287Z,364.00
2019-05-15T05:52:19.116Z,376.00
2019-05-15T05:53:21.335Z,396.00
2019-05-15T05:54:19.108Z,412.00
2019-05-15T05:55:19.069Z,424.00
2019-05-15T05:56:19.061Z,432.00
2019-05-15T05:57:19.475Z,444.00
2019-05-15T05:58:19.825Z,456.00
2019-05-15T05:59:19.033Z,472.00
2019-05-15T06:00:19.031Z,496.00
2019-05-15T06:01:19.072Z,520.00
2019-05-15T06:02:18.998Z,540.00
2019-05-15T06:03:19.723Z,560.00
2019-05-15T06:04:18.988Z,572.00
2019-05-15T06:05:19.134Z,584.00
2019-05-15T06:06:18.953Z,596.00
2019-05-15T06:07:18.942Z,600.00
2019-05-15T06:08:19.731Z,604.00
2019-05-15T06:09:18.940Z,604.00
2019-05-15T06:10:18.908Z,612.00
2019-05-15T06:11:18.894Z,616.00
2019-05-15T06:12:19.068Z,624.00
2019-05-15T06:13:18.981Z,640.00
2019-05-15T06:14:18.875Z,660.00
2019-05-15T06:15:18.860Z,676.00
2019-05-15T06:16:19.079Z,684.00
2019-05-15T06:17:19.171Z,696.00
2019-05-15T06:18:19.886Z,700.00
2019-05-15T06:19:18.820Z,700.00
2019-05-15T06:20:18.797Z,696.00
2019-05-15T06:21:18.790Z,688.00
2019-05-15T06:22:18.952Z,676.00
2019-05-15T06:23:23.167Z,668.00
2019-05-15T06:24:19.771Z,660.00
2019-05-15T06:25:19.849Z,664.00
2019-05-15T06:26:19.633Z,676.00
2019-05-15T06:27:20.022Z,684.00
2019-05-15T06:28:19.955Z,680.00
2019-05-15T06:29:18.719Z,676.00
2019-05-15T06:30:26.431Z,660.00
2019-05-15T06:31:19.675Z,652.00
2019-05-15T06:32:19.402Z,644.00
2019-05-15T06:33:19.059Z,640.00
2019-05-15T06:34:18.661Z,628.00
2019-05-15T06:35:19.397Z,624.00
2019-05-15T06:36:18.626Z,620.00
2019-05-15T06:37:19.704Z,640.00
2019-05-15T06:38:19.262Z,660.00
2019-05-15T06:39:18.621Z,680.00
2019-05-15T06:40:18.573Z,696.00
2019-05-15T06:41:18.574Z,708.00
2019-05-15T06:42:18.900Z,716.00
2019-05-15T06:43:19.370Z,724.00
2019-05-15T06:44:18.898Z,728.00
2019-05-15T06:45:18.879Z,740.00
2019-05-15T06:46:18.862Z,732.00
2019-05-15T06:47:18.504Z,708.00
2019-05-15T06:48:18.810Z,676.00
2019-05-15T06:49:18.506Z,640.00
2019-05-15T06:50:18.478Z,624.00
2019-05-15T06:51:18.504Z,628.00
2019-05-15T06:52:18.451Z,656.00
2019-05-15T06:53:19.102Z,696.00
2019-05-15T06:54:18.891Z,724.00
2019-05-15T06:55:18.414Z,720.00
2019-05-15T06:56:18.911Z,684.00
2019-05-15T06:57:18.598Z,696.00
2019-05-15T06:58:19.666Z,704.00
2019-05-15T06:59:18.396Z,752.00
2019-05-15T07:00:19.206Z,780.00
2019-05-15T07:01:19.037Z,800.00
2019-05-15T07:02:19.011Z,816.00
2019-05-15T07:03:25.223Z,828.00
2019-05-15T07:04:19.335Z,868.00
2019-05-15T07:05:18.497Z,876.00
2019-05-15T07:06:18.381Z,904.00
2019-05-15T07:07:18.371Z,896.00
2019-05-15T07:08:18.424Z,896.00
2019-05-15T07:09:18.286Z,888.00
2019-05-15T07:10:18.981Z,920.00
2019-05-15T07:11:19.083Z,932.00
2019-05-15T07:12:18.692Z,952.00
2019-05-15T07:13:18.579Z,988.00
2019-05-15T07:14:18.300Z,992.00
2019-05-15T07:15:18.364Z,996.00
2019-05-15T07:16:18.371Z,968.00
2019-05-15T07:17:18.182Z,932.00
2019-05-15T07:18:19.823Z,888.00
2019-05-15T07:19:18.986Z,844.00
2019-05-15T07:20:18.553Z,792.00
2019-05-15T07:21:20.501Z,736.00
2019-05-15T07:22:18.389Z,688.00
2019-05-15T07:23:18.746Z,632.00
2019-05-15T07:24:18.359Z,572.00
2019-05-15T07:25:18.872Z,528.00
2019-05-15T07:26:18.374Z,512.00
2019-05-15T07:27:18.482Z,504.00
2019-05-15T07:28:18.387Z,496.00
2019-05-15T07:29:18.941Z,492.00
2019-05-15T07:30:18.748Z,476.00
2019-05-15T07:31:18.212Z,480.00
2019-05-15T07:32:19.223Z,480.00
2019-05-15T07:33:28.031Z,484.00
2019-05-15T07:34:19.013Z,488.00
2019-05-15T07:35:19.110Z,500.00
2019-05-15T07:36:19.337Z,516.00
2019-05-15T07:37:19.100Z,508.00
2019-05-15T07:38:18.345Z,520.00
2019-05-15T07:39:18.107Z,516.00
2019-05-15T07:40:19.327Z,508.00
2019-05-15T07:41:18.440Z,484.00
2019-05-15T07:42:18.529Z,472.00
2019-05-15T07:43:18.312Z,452.00
2019-05-15T07:44:18.847Z,424.00
2019-05-15T07:45:19.770Z,412.00
2019-05-15T07:46:18.509Z,404.00
2019-05-15T07:47:19.091Z,400.00
2019-05-15T07:48:18.706Z,368.00
2019-05-15T07:49:18.250Z,384.00
2019-05-15T07:50:19.698Z,392.00
2019-05-15T07:51:18.137Z,376.00
2019-05-15T07:52:19.372Z,400.00
2019-05-15T07:53:19.705Z,408.00
2019-05-15T07:54:18.323Z,408.00
2019-05-15T07:55:18.505Z,420.00
2019-05-15T07:56:18.222Z,436.00
2019-05-15T07:57:19.333Z,452.00
2019-05-15T07:58:21.567Z,460.00
2019-05-15T07:59:18.704Z,396.00
2019-05-15T08:00:18.897Z,412.00
2019-05-15T08:01:18.550Z,452.00
2019-05-15T08:02:19.099Z,480.00
2019-05-15T08:03:18.384Z,496.00
2019-05-15T08:04:25.821Z,496.00
2019-05-15T08:05:18.676Z,476.00
2019-05-15T08:06:18.104Z,464.00
2019-05-15T08:07:18.456Z,476.00
2019-05-15T08:08:18.517Z,480.00
2019-05-15T08:09:18.063Z,508.00
2019-05-15T08:10:18.301Z,568.00
2019-05-15T08:11:24.085Z,640.00
2019-05-15T08:12:19.307Z,704.00
2019-05-15T08:13:18.486Z,756.00
2019-05-15T08:14:18.571Z,796.00
2019-05-15T08:15:18.289Z,812.00
2019-05-15T08:16:18.135Z,828.00
2019-05-15T08:17:19.105Z,876.00
2019-05-15T08:18:18.017Z,952.00
2019-05-15T08:19:18.359Z,1040.00
2019-05-15T08:20:18.376Z,1104.00
2019-05-15T08:21:18.606Z,1152.00
2019-05-15T08:22:18.293Z,1140.00
2019-05-15T08:23:19.136Z,1100.00
2019-05-15T08:24:18.894Z,1076.00
2019-05-15T08:25:31.230Z,1060.00
2019-05-15T08:26:18.468Z,1064.00
2019-05-15T08:27:19.102Z,1092.00
2019-05-15T08:28:19.186Z,1120.00
2019-05-15T08:29:21.442Z,1168.00
2019-05-15T08:30:18.357Z,1240.00
2019-05-15T08:31:18.355Z,1296.00
2019-05-15T08:32:19.044Z,1424.00
2019-05-15T08:33:17.976Z,1488.00
2019-05-15T08:34:19.492Z,1540.00
2019-05-15T08:35:19.112Z,1572.00
2019-05-15T08:36:18.381Z,1612.00
2019-05-15T08:37:18.277Z,1628.00
2019-05-15T08:38:18.252Z,1632.00
2019-05-15T08:39:19.010Z,1608.00
2019-05-15T08:40:17.912Z,1552.00
2019-05-15T08:41:18.536Z,1488.00
2019-05-15T08:42:18.879Z,1460.00
2019-05-15T08:43:18.391Z,1452.00
2019-05-15T08:44:18.648Z,1444.00
2019-05-15T08:45:18.859Z,1428.00
2019-05-15T08:46:18.640Z,1396.00
2019-05-15T08:47:19.191Z,1344.00
2019-05-15T08:48:18.561Z,1336.00
2019-05-15T08:49:20.308Z,1328.00
2019-05-15T08:50:18.290Z,1368.00
2019-05-15T08:51:19.352Z,1364.00
2019-05-15T08:52:18.975Z,1376.00
2019-05-15T08:53:19.323Z,1384.00
2019-05-15T08:54:18.280Z,1372.00
2019-05-15T08:55:17.164Z,1348.00
2019-05-15T08:56:19.428Z,1280.00
2019-05-15T08:57:20.447Z,1260.00
2019-05-15T08:58:20.047Z,1248.00
2019-05-15T08:59:18.842Z,1272.00
2019-05-15T09:00:18.552Z,1312.00
2019-05-15T09:01:18.109Z,1392.00
2019-05-15T09:02:18.553Z,1460.00
2019-05-15T09:03:18.278Z,1548.00
2019-05-15T09:04:27.901Z,1600.00
2019-05-15T09:05:18.786Z,1636.00
2019-05-15T09:06:20.657Z,1628.00
2019-05-15T09:07:18.194Z,1580.00
2019-05-15T09:08:19.418Z,1528.00
2019-05-15T09:09:18.240Z,1512.00
2019-05-15T09:10:18.383Z,1496.00
2019-05-15T09:11:19.276Z,1436.00
2019-05-15T09:12:18.849Z,1404.00
2019-05-15T09:13:18.963Z,1364.00
2019-05-15T09:14:18.484Z,1352.00
2019-05-15T09:15:18.480Z,1412.00
2019-05-15T09:16:18.466Z,1496.00
2019-05-15T09:17:18.170Z,1444.00
2019-05-15T09:18:19.904Z,1412.00
2019-05-15T09:19:18.453Z,1400.00
2019-05-15T09:20:19.348Z,1408.00
2019-05-15T09:21:19.199Z,1448.00
2019-05-15T09:22:18.746Z,1520.00
2019-05-15T09:23:19.455Z,1596.00
2019-05-15T09:24:19.667Z,1644.00
2019-05-15T09:25:19.430Z,1660.00
2019-05-15T09:26:19.266Z,1668.00
2019-05-15T09:27:18.479Z,1672.00
2019-05-15T09:28:18.967Z,1692.00
2019-05-15T09:29:18.316Z,1716.00
2019-05-15T09:30:18.312Z,1684.00
2019-05-15T09:31:19.061Z,1672.00
2019-05-15T09:32:18.785Z,1708.00
2019-05-15T09:33:19.568Z,1768.00
2019-05-15T09:34:18.568Z,1784.00
2019-05-15T09:35:18.686Z,1744.00
2019-05-15T09:36:16.738Z,1656.00
2019-05-15T09:37:18.078Z,1564.00
2019-05-15T09:38:18.497Z,1484.00
2019-05-15T09:39:18.259Z,1432.00
2019-05-15T09:40:18.641Z,1380.00
2019-05-15T09:41:17.879Z,1360.00
2019-05-15T09:42:18.007Z,1344.00
2019-05-15T09:43:18.178Z,1336.00
2019-05-15T09:44:21.015Z,1304.00
2019-05-15T09:45:18.067Z,1252.00
2019-05-15T09:46:18.503Z,1144.00
2019-05-15T09:47:18.868Z,1064.00
2019-05-15T09:48:19.251Z,984.00
2019-05-15T09:49:18.178Z,928.00
2019-05-15T09:50:19.114Z,876.00
2019-05-15T09:51:18.320Z,844.00
2019-05-15T09:52:20.127Z,820.00
2019-05-15T09:53:18.938Z,848.00
2019-05-15T09:54:19.071Z,908.00
2019-05-15T09:55:18.082Z,1000.00
2019-05-15T09:56:18.510Z,1104.00
2019-05-15T09:57:18.782Z,1176.00
2019-05-15T09:58:19.681Z,1180.00
2019-05-15T09:59:18.601Z,1164.00
2019-05-15T10:00:18.787Z,1144.00
2019-05-15T10:01:19.337Z,1156.00
2019-05-15T10:02:18.718Z,1108.00
2019-05-15T10:03:18.886Z,1024.00
2019-05-15T10:04:18.774Z,924.00
2019-05-15T10:05:18.533Z,892.00
2019-05-15T10:06:20.061Z,916.00
2019-05-15T10:07:19.109Z,932.00
2019-05-15T10:08:16.391Z,956.00
2019-05-15T10:09:18.671Z,1076.00
2019-05-15T10:10:16.380Z,1144.00
2019-05-15T10:11:19.307Z,1336.00
2019-05-15T10:12:18.334Z,1440.00
2019-05-15T10:13:18.498Z,1580.00
2019-05-15T10:14:19.264Z,1624.00
2019-05-15T10:15:18.500Z,1668.00
2019-05-15T10:16:19.547Z,1728.00
2019-05-15T10:17:18.366Z,1640.00
2019-05-15T10:18:18.746Z,1584.00
2019-05-15T10:19:18.556Z,1552.00
2019-05-15T10:20:18.433Z,1552.00
2019-05-15T10:21:18.686Z,1576.00
2019-05-15T10:22:18.553Z,1580.00
2019-05-15T10:23:19.133Z,1584.00
2019-05-15T10:24:18.235Z,1564.00
2019-05-15T10:25:18.804Z,1500.00
2019-05-15T10:26:16.203Z,1492.00
2019-05-15T10:27:18.063Z,1572.00
2019-05-15T10:28:18.845Z,1632.00
2019-05-15T10:29:16.156Z,1620.00
2019-05-15T10:30:18.696Z,1680.00
2019-05-15T10:31:16.141Z,1720.00
2019-05-15T10:32:19.251Z,1724.00
2019-05-15T10:33:16.105Z,1756.00
2019-05-15T10:34:18.219Z,1756.00
2019-05-15T10:35:25.764Z,1724.00
2019-05-15T10:36:18.897Z,1696.00
2019-05-15T10:37:18.545Z,1712.00
2019-05-15T10:38:16.061Z,1708.00
2019-05-15T10:39:18.026Z,1672.00
2019-05-15T10:40:16.031Z,1660.00
2019-05-15T10:41:18.546Z,1692.00
2019-05-15T10:42:16.015Z,1780.00
2019-05-15T10:43:16.010Z,1848.00
2019-05-15T10:44:18.017Z,1908.00
2019-05-15T10:45:15.986Z,1924.00
2019-05-15T10:46:15.996Z,1920.00
2019-05-15T10:47:15.964Z,1908.00
2019-05-15T10:48:18.710Z,1904.00
2019-05-15T10:49:15.932Z,1864.00
2019-05-15T10:50:15.936Z,1776.00
2019-05-15T10:51:15.942Z,1716.00
2019-05-15T10:52:18.054Z,1636.00
2019-05-15T10:53:18.476Z,1612.00
2019-05-15T10:54:15.881Z,1672.00
2019-05-15T10:55:18.824Z,1680.00
2019-05-15T10:56:18.369Z,1692.00
2019-05-15T10:57:15.851Z,1636.00
2019-05-15T10:58:18.295Z,1560.00
2019-05-15T10:59:18.353Z,1492.00
2019-05-15T11:00:15.862Z,1436.00
2019-05-15T11:01:15.835Z,1416.00
2019-05-15T11:02:15.843Z,1452.00
2019-05-15T11:03:15.794Z,1504.00
2019-05-15T11:04:17.999Z,1552.00
2019-05-15T11:05:17.877Z,1592.00
2019-05-15T11:06:18.151Z,1644.00
2019-05-15T11:07:15.747Z,1664.00
2019-05-15T11:08:15.748Z,1640.00
2019-05-15T11:09:15.726Z,1568.00
2019-05-15T11:10:18.383Z,1560.00
2019-05-15T11:11:18.182Z,1612.00
2019-05-15T11:12:18.683Z,1656.00
2019-05-15T11:13:18.386Z,1684.00
2019-05-15T11:14:18.277Z,1716.00
2019-05-15T11:15:18.192Z,1776.00
2019-05-15T11:16:15.666Z,1788.00
2019-05-15T11:17:15.639Z,1724.00
2019-05-15T11:18:15.629Z,1648.00
2019-05-15T11:19:15.617Z,1588.00
2019-05-15T11:20:15.613Z,1588.00
2019-05-15T11:21:15.614Z,1588.00
2019-05-15T11:22:15.604Z,1576.00
2019-05-15T11:23:15.576Z,1584.00
2019-05-15T11:24:15.574Z,1608.00
2019-05-15T11:25:15.560Z,1636.00
2019-05-15T11:26:15.559Z,1600.00
2019-05-15T11:27:15.531Z,1656.00
2019-05-15T11:28:15.530Z,1756.00
2019-05-15T11:29:15.512Z,1840.00
2019-05-15T11:30:15.503Z,1900.00
2019-05-15T11:31:15.503Z,1940.00
2019-05-15T11:32:15.485Z,2024.00
2019-05-15T11:33:18.534Z,2140.00
2019-05-15T11:34:18.393Z,2180.00
2019-05-15T11:35:17.995Z,2140.00
2019-05-15T11:36:18.342Z,2068.00
2019-05-15T11:37:15.429Z,2016.00
2019-05-15T11:38:16.536Z,1904.00
2019-05-15T11:39:18.052Z,1772.00
2019-05-15T11:40:15.400Z,1620.00
2019-05-15T11:41:18.383Z,1508.00
2019-05-15T11:42:15.384Z,1440.00
2019-05-15T11:43:15.370Z,1396.00
2019-05-15T11:44:15.351Z,1380.00
2019-05-15T11:45:15.344Z,1372.00
2019-05-15T11:46:15.347Z,1384.00
2019-05-15T11:47:15.358Z,1408.00
2019-05-15T11:48:15.315Z,1432.00
2019-05-15T11:49:15.314Z,1452.00
2019-05-15T11:50:15.296Z,1480.00
2019-05-15T11:51:15.302Z,1480.00
2019-05-15T11:52:15.271Z,1468.00
2019-05-15T11:53:15.257Z,1496.00
2019-05-15T11:54:15.253Z,1548.00
2019-05-15T11:55:15.263Z,1628.00
2019-05-15T11:56:15.241Z,1704.00
2019-05-15T11:57:15.227Z,1780.00
2019-05-15T11:58:15.222Z,1888.00
2019-05-15T11:59:15.197Z,2076.00
2019-05-15T12:00:20.280Z,2308.00
2019-05-15T12:01:19.083Z,2380.00
2019-05-15T12:02:15.159Z,2348.00
2019-05-15T12:03:15.153Z,2256.00
2019-05-15T12:04:28.781Z,2200.00
2019-05-15T12:05:18.289Z,2216.00
2019-05-15T12:06:19.725Z,2284.00
2019-05-15T12:07:18.203Z,2436.00
2019-05-15T12:08:15.108Z,2604.00
2019-05-15T12:09:15.087Z,2736.00
2019-05-15T12:10:15.079Z,2792.00
2019-05-15T12:11:28.646Z,2776.00
2019-05-15T12:12:18.040Z,2760.00
2019-05-15T12:13:15.043Z,2884.00
2019-05-15T12:14:15.046Z,2900.00
2019-05-15T12:15:15.021Z,2696.00
2019-05-15T12:16:15.016Z,2312.00
2019-05-15T12:17:15.603Z,1956.00
2019-05-15T12:18:15.006Z,1736.00
2019-05-15T12:19:17.377Z,1656.00
2019-05-15T12:20:14.970Z,1632.00
2019-05-15T12:21:19.619Z,1632.00
2019-05-15T12:22:15.962Z,1656.00
2019-05-15T12:23:14.940Z,1704.00
2019-05-15T12:24:14.931Z,1724.00
2019-05-15T12:25:14.918Z,1744.00
2019-05-15T12:26:14.924Z,1756.00
2019-05-15T12:27:18.190Z,1732.00
2019-05-15T12:28:14.906Z,1748.00
2019-05-15T12:29:14.880Z,1828.00
2019-05-15T12:30:14.874Z,1916.00
2019-05-15T12:31:14.857Z,1976.00
2019-05-15T12:32:26.530Z,2000.00
2019-05-15T12:33:18.169Z,2004.00
2019-05-15T12:34:14.840Z,2056.00
2019-05-15T12:35:14.808Z,1988.00